Time;durP1;ratioP1;P1;durP2;ratioP2;P2;SDS_P1;SDS_P2;PMS_P1;PMS_P2;Temp;Humidity;BMP_temperature;BMP_pressure;BME280_temperature;BME280_humidity;BME280_pressure;Samples;Min_cycle;Max_cycle;Signal;HPM_P1;HPM_P2
2023/07/23 00:00:12;;;;;;;9.23;6.93;;;16.00;99.90;;;;;;5094895;28;20200;-72
2023/07/23 00:02:38;;;;;;;9.55;6.57;;;16.00;99.90;;;;;;5094704;28;20257;-72
2023/07/23 00:05:05;;;;;;;9.67;6.30;;;16.10;99.90;;;;;;5094702;28;20193;-71
2023/07/23 00:07:32;;;;;;;7.00;5.55;;;16.10;99.90;;;;;;5094122;28;20254;-72
2023/07/23 00:09:59;;;;;;;7.18;5.70;;;16.10;99.90;;;;;;5093894;28;20232;-72
2023/07/23 00:12:27;;;;;;;7.70;5.03;;;16.10;99.90;;;;;;5094645;28;20197;-72
2023/07/23 00:14:53;;;;;;;6.57;5.13;;;16.00;99.90;;;;;;5094607;28;20325;-72
2023/07/23 00:17:20;;;;;;;5.97;4.95;;;16.10;99.90;;;;;;5094592;28;20251;-72
2023/07/23 00:19:46;;;;;;;8.50;5.20;;;16.00;99.90;;;;;;5094448;28;20196;-72
2023/07/23 00:22:13;;;;;;;7.15;4.57;;;16.10;99.90;;;;;;5094249;28;20265;-72
2023/07/23 00:24:40;;;;;;;11.02;4.88;;;16.10;99.90;;;;;;5094493;28;20204;-72
2023/07/23 00:27:06;;;;;;;8.88;5.30;;;16.10;99.90;;;;;;5094435;28;20197;-72
2023/07/23 00:29:34;;;;;;;9.70;4.68;;;16.20;99.90;;;;;;5094304;28;20196;-71
2023/07/23 00:32:01;;;;;;;5.78;5.15;;;16.20;99.90;;;;;;5094088;28;20224;-72
2023/07/23 00:34:29;;;;;;;6.03;5.00;;;16.20;99.90;;;;;;5094066;28;20606;-72
2023/07/23 00:36:55;;;;;;;6.50;4.73;;;16.20;99.90;;;;;;5093999;28;20196;-72
2023/07/23 00:39:22;;;;;;;6.00;4.87;;;16.30;99.90;;;;;;5094414;28;20200;-72
2023/07/23 00:41:49;;;;;;;6.63;5.20;;;16.30;99.90;;;;;;5094059;28;20196;-72
2023/07/23 00:44:16;;;;;;;10.65;5.15;;;16.30;99.90;;;;;;5094257;28;20203;-72
2023/07/23 00:46:44;;;;;;;7.90;5.03;;;16.40;99.90;;;;;;5094167;28;20205;-72
2023/07/23 00:49:11;;;;;;;5.18;4.63;;;16.50;99.90;;;;;;5093853;28;20204;-72
2023/07/23 00:51:38;;;;;;;8.10;4.50;;;16.50;99.90;;;;;;5093916;28;20273;-72
2023/07/23 00:54:05;;;;;;;7.88;4.97;;;16.50;99.90;;;;;;5093895;28;20258;-72
2023/07/23 00:56:32;;;;;;;6.00;4.18;;;16.60;99.90;;;;;;5093704;28;20270;-72
2023/07/23 00:58:59;;;;;;;5.32;3.90;;;16.60;99.90;;;;;;5096784;28;20282;-72
2023/07/23 01:01:26;;;;;;;5.85;4.70;;;16.70;99.90;;;;;;5095243;28;20253;-72
2023/07/23 01:03:54;;;;;;;5.53;4.25;;;16.70;99.90;;;;;;5093435;28;20656;-72
2023/07/23 01:06:21;;;;;;;6.72;4.13;;;16.80;99.90;;;;;;5093401;28;20253;-72
2023/07/23 01:08:49;;;;;;;8.80;4.60;;;16.80;99.90;;;;;;5093580;28;20283;-72
2023/07/23 01:11:16;;;;;;;4.63;3.53;;;16.80;99.90;;;;;;5093483;28;20224;-72
2023/07/23 01:13:45;;;;;;;5.32;4.40;;;16.80;99.90;;;;;;5093462;28;20193;-72
2023/07/23 01:16:11;;;;;;;8.30;4.18;;;16.80;99.90;;;;;;5093351;28;20203;-72
2023/07/23 01:18:39;;;;;;;5.10;4.40;;;16.80;99.90;;;;;;5093237;28;20249;-72
2023/07/23 01:21:09;;;;;;;6.07;4.37;;;16.80;99.90;;;;;;5093281;28;20253;-72
2023/07/23 01:23:38;;;;;;;6.40;4.72;;;16.80;99.90;;;;;;5093416;28;20227;-72
2023/07/23 01:26:07;;;;;;;6.28;4.22;;;16.80;99.90;;;;;;5093306;28;20246;-72
2023/07/23 01:28:33;;;;;;;6.32;3.90;;;16.80;99.90;;;;;;5093180;28;20667;-72
2023/07/23 01:31:00;;;;;;;4.47;3.92;;;16.80;99.90;;;;;;5092968;28;20215;-72
2023/07/23 01:33:28;;;;;;;6.47;4.50;;;16.70;99.90;;;;;;5093272;28;20204;-72
2023/07/23 01:35:56;;;;;;;7.53;4.30;;;16.80;99.90;;;;;;5093202;28;20349;-72
2023/07/23 01:38:23;;;;;;;5.57;4.32;;;16.60;99.90;;;;;;5093210;28;20250;-71
2023/07/23 01:40:52;;;;;;;5.57;3.85;;;16.60;99.90;;;;;;5093134;28;20530;-72
2023/07/23 01:43:19;;;;;;;5.32;3.97;;;16.60;99.90;;;;;;5092941;28;20206;-72
2023/07/23 01:45:47;;;;;;;4.50;3.90;;;16.60;99.90;;;;;;5092990;28;20196;-72
2023/07/23 01:48:14;;;;;;;7.65;4.70;;;16.50;99.90;;;;;;5093100;28;20192;-72
2023/07/23 01:50:41;;;;;;;5.60;4.32;;;16.40;99.90;;;;;;5092966;28;20219;-72
2023/07/23 01:53:08;;;;;;;6.57;4.43;;;16.40;99.90;;;;;;5092877;28;20648;-72
2023/07/23 01:55:35;;;;;;;7.75;4.57;;;16.40;99.90;;;;;;5092870;28;20273;-72
2023/07/23 01:58:03;;;;;;;6.40;4.23;;;16.30;99.90;;;;;;5092699;28;20228;-72
2023/07/23 02:00:30;;;;;;;9.32;4.78;;;16.20;99.90;;;;;;5092767;28;20193;-72
2023/07/23 02:02:56;;;;;;;5.43;4.37;;;16.20;99.90;;;;;;5092731;28;20621;-72
2023/07/23 02:05:23;;;;;;;6.37;4.57;;;16.10;99.90;;;;;;5092926;28;20253;-72
2023/07/23 02:07:50;;;;;;;4.90;4.40;;;16.20;99.90;;;;;;5092676;28;20712;-72
2023/07/23 02:10:18;;;;;;;7.60;4.67;;;16.00;99.90;;;;;;5092727;28;20253;-72
2023/07/23 02:12:44;;;;;;;5.17;4.40;;;15.90;99.90;;;;;;5092569;28;20291;-71
2023/07/23 02:15:12;;;;;;;5.47;4.30;;;15.80;99.90;;;;;;5092696;28;20204;-72
2023/07/23 02:17:39;;;;;;;10.37;4.40;;;15.70;99.90;;;;;;5092752;28;20200;-72
2023/07/23 02:20:08;;;;;;;10.90;4.23;;;15.70;99.90;;;;;;5092737;28;20200;-73
2023/07/23 02:22:35;;;;;;;9.23;4.37;;;15.70;99.90;;;;;;5092744;28;20250;-72
2023/07/23 02:25:02;;;;;;;5.90;4.40;;;15.70;99.90;;;;;;5092718;28;20243;-72
2023/07/23 02:27:29;;;;;;;7.13;4.33;;;15.70;99.90;;;;;;5092595;28;20196;-72
2023/07/23 02:29:56;;;;;;;5.00;4.23;;;15.70;99.90;;;;;;5092894;28;20200;-72
2023/07/23 02:32:24;;;;;;;5.73;4.03;;;15.70;99.90;;;;;;5094877;28;20254;-72
2023/07/23 02:34:50;;;;;;;5.30;4.27;;;15.70;99.90;;;;;;5096731;28;20668;-72
2023/07/23 02:37:17;;;;;;;7.87;4.83;;;15.70;99.90;;;;;;5096510;28;20253;-72
2023/07/23 02:39:43;;;;;;;4.70;4.30;;;15.60;99.90;;;;;;5096343;28;20207;-71
2023/07/23 02:42:10;;;;;;;7.30;4.57;;;15.50;99.90;;;;;;5096481;28;20283;-72
2023/07/23 02:44:38;;;;;;;8.33;4.70;;;15.30;99.90;;;;;;5096201;28;20644;-72
2023/07/23 02:47:05;;;;;;;8.13;4.23;;;15.20;99.90;;;;;;5096288;28;20295;-72
2023/07/23 02:49:33;;;;;;;5.93;4.70;;;15.10;99.90;;;;;;5096210;28;20200;-71
2023/07/23 02:52:01;;;;;;;8.87;4.70;;;15.20;99.90;;;;;;5096026;28;20273;-72
2023/07/23 02:54:27;;;;;;;4.93;4.07;;;15.10;99.90;;;;;;5095884;28;20725;-72
2023/07/23 02:56:54;;;;;;;4.90;4.43;;;15.10;99.90;;;;;;5096055;28;20285;-72
2023/07/23 02:59:20;;;;;;;5.77;4.47;;;14.90;99.90;;;;;;5096210;28;20270;-72
2023/07/23 03:01:47;;;;;;;4.50;3.67;;;14.90;99.90;;;;;;5096052;28;20204;-71
2023/07/23 03:04:14;;;;;;;5.57;4.17;;;14.90;99.90;;;;;;5095972;28;20250;-72
2023/07/23 03:06:42;;;;;;;4.90;4.07;;;14.90;99.90;;;;;;5095749;28;20207;-72
2023/07/23 03:09:09;;;;;;;5.40;4.33;;;14.80;99.90;;;;;;5096017;28;20246;-72
2023/07/23 03:11:35;;;;;;;5.47;4.00;;;14.80;99.90;;;;;;5095603;28;20776;-71
2023/07/23 03:14:02;;;;;;;5.40;4.70;;;14.80;99.90;;;;;;5095804;28;20192;-72
2023/07/23 03:16:28;;;;;;;4.27;3.87;;;14.80;99.90;;;;;;5095779;28;20261;-72
2023/07/23 03:18:55;;;;;;;5.83;4.13;;;14.60;99.90;;;;;;5095653;28;20229;-71
2023/07/23 03:21:22;;;;;;;6.07;4.77;;;14.70;99.90;;;;;;5095506;28;20192;-71
2023/07/23 03:23:50;;;;;;;5.00;4.17;;;14.60;99.90;;;;;;5095665;28;20232;-72
2023/07/23 03:26:16;;;;;;;4.97;4.23;;;14.60;99.90;;;;;;5095639;28;20204;-72
2023/07/23 03:28:43;;;;;;;4.77;4.27;;;14.70;99.90;;;;;;5095515;28;20226;-73
2023/07/23 03:31:11;;;;;;;4.80;4.17;;;14.60;99.90;;;;;;5095256;28;20549;-71
2023/07/23 03:33:37;;;;;;;7.10;4.50;;;14.60;99.90;;;;;;5095389;28;20196;-72
2023/07/23 03:36:04;;;;;;;7.23;4.50;;;14.60;99.90;;;;;;5095328;28;20246;-71
2023/07/23 03:38:31;;;;;;;5.40;4.67;;;14.50;99.90;;;;;;5095422;28;20200;-72
2023/07/23 03:40:59;;;;;;;5.33;4.40;;;14.60;99.90;;;;;;5095039;28;20195;-71
2023/07/23 03:43:26;;;;;;;5.77;4.40;;;14.70;99.90;;;;;;5095037;28;20242;-71
2023/07/23 03:45:53;;;;;;;6.07;4.83;;;14.50;99.90;;;;;;5095157;28;20269;-71
2023/07/23 03:48:19;;;;;;;5.73;4.10;;;14.50;99.90;;;;;;5094919;28;20201;-71
2023/07/23 03:50:46;;;;;;;6.10;4.27;;;14.50;99.90;;;;;;5094847;28;20265;-71
2023/07/23 03:53:12;;;;;;;7.13;4.00;;;14.50;99.90;;;;;;5095074;28;20289;-71
2023/07/23 03:55:39;;;;;;;5.93;4.40;;;14.50;99.90;;;;;;5094983;28;20238;-71
2023/07/23 03:58:08;;;;;;;4.70;4.20;;;14.50;99.90;;;;;;5094942;28;20224;-71
2023/07/23 04:00:36;;;;;;;5.83;4.43;;;14.50;99.90;;;;;;5094691;28;20659;-71
2023/07/23 04:03:02;;;;;;;5.37;4.30;;;14.50;99.90;;;;;;5094692;28;20294;-71
2023/07/23 04:05:29;;;;;;;4.53;4.07;;;14.40;99.90;;;;;;5094542;28;20204;-71
2023/07/23 04:07:55;;;;;;;5.87;4.37;;;14.40;99.90;;;;;;5086578;28;20667;-70
2023/07/23 04:10:22;;;;;;;5.13;4.23;;;14.50;99.90;;;;;;5077611;28;20247;-70
2023/07/23 04:12:49;;;;;;;5.80;4.63;;;14.50;99.90;;;;;;5074313;28;20809;-71
2023/07/23 04:15:17;;;;;;;5.53;4.63;;;14.50;99.90;;;;;;5074525;28;20201;-71
2023/07/23 04:17:43;;;;;;;6.17;4.60;;;14.50;99.90;;;;;;5074279;28;20205;-70
2023/07/23 04:20:11;;;;;;;5.33;4.00;;;14.60;99.90;;;;;;5074367;28;20197;-71
2023/07/23 04:22:37;;;;;;;5.13;4.30;;;14.60;99.90;;;;;;5074212;28;20216;-71
2023/07/23 04:25:04;;;;;;;6.63;4.33;;;14.60;99.90;;;;;;5074028;28;20201;-71
2023/07/23 04:27:31;;;;;;;5.50;4.10;;;14.60;99.90;;;;;;5073993;28;20196;-71
2023/07/23 04:29:58;;;;;;;4.73;4.23;;;14.70;99.90;;;;;;5073888;28;20201;-72
2023/07/23 04:32:26;;;;;;;6.60;4.60;;;14.80;99.90;;;;;;5073782;28;20282;-71
2023/07/23 04:34:52;;;;;;;6.53;4.33;;;14.90;99.90;;;;;;5073997;28;20201;-71
2023/07/23 04:37:19;;;;;;;5.20;4.27;;;15.10;99.90;;;;;;5073802;28;20197;-71
2023/07/23 04:39:45;;;;;;;4.43;4.03;;;15.10;99.90;;;;;;5073784;28;20565;-71
2023/07/23 04:42:12;;;;;;;5.73;4.20;;;15.10;99.90;;;;;;5073592;28;20204;-71
2023/07/23 04:44:39;;;;;;;8.40;4.13;;;15.20;99.90;;;;;;5073605;28;20201;-70
2023/07/23 04:47:05;;;;;;;5.20;4.43;;;15.30;99.90;;;;;;5073761;28;20197;-71
2023/07/23 04:49:33;;;;;;;5.50;4.37;;;15.40;99.90;;;;;;5073635;28;20193;-71
2023/07/23 04:52:00;;;;;;;4.90;4.40;;;15.50;99.90;;;;;;5073443;28;20221;-71
2023/07/23 04:54:26;;;;;;;4.73;4.27;;;15.60;99.90;;;;;;5073225;28;20223;-71
2023/07/23 04:56:53;;;;;;;4.93;4.20;;;15.70;99.90;;;;;;5073247;28;20225;-71
2023/07/23 04:59:20;;;;;;;4.43;4.03;;;15.80;99.90;;;;;;5073318;28;20204;-71
2023/07/23 05:01:46;;;;;;;6.03;4.40;;;15.90;99.90;;;;;;5073273;28;20659;-71
2023/07/23 05:04:13;;;;;;;4.43;4.00;;;16.10;99.90;;;;;;5073461;28;20196;-71
2023/07/23 05:06:41;;;;;;;5.88;4.03;;;16.20;99.90;;;;;;5073419;28;20203;-70
2023/07/23 05:09:07;;;;;;;4.95;3.92;;;16.30;99.90;;;;;;5073517;28;20196;-72
2023/07/23 05:11:34;;;;;;;4.50;3.40;;;16.40;99.90;;;;;;5073065;28;20217;-72
2023/07/23 05:14:01;;;;;;;3.92;3.53;;;16.50;99.90;;;;;;5073118;28;20254;-72
2023/07/23 05:16:27;;;;;;;4.82;3.85;;;16.70;99.90;;;;;;5073380;28;20622;-72
2023/07/23 05:18:54;;;;;;;5.43;4.47;;;16.80;99.90;;;;;;5073271;28;20235;-72
2023/07/23 05:21:21;;;;;;;5.05;4.00;;;16.90;99.90;;;;;;5073055;28;20193;-72
2023/07/23 05:23:49;;;;;;;4.90;4.40;;;17.10;99.90;;;;;;5073005;28;20205;-72
2023/07/23 05:26:15;;;;;;;5.10;4.00;;;17.20;99.90;;;;;;5072967;28;20251;-71
2023/07/23 05:28:42;;;;;;;5.72;4.20;;;17.40;99.90;;;;;;5072845;28;20258;-71
2023/07/23 05:31:09;;;;;;;4.75;3.97;;;17.50;99.90;;;;;;5073118;28;20611;-73
2023/07/23 05:33:35;;;;;;;4.43;3.90;;;17.50;99.90;;;;;;5072726;28;20738;-71
2023/07/23 05:36:02;;;;;;;3.90;3.50;;;17.70;99.90;;;;;;5072858;28;20201;-71
2023/07/23 05:38:29;;;;;;;5.60;3.88;;;17.70;99.90;;;;;;5072884;28;20193;-71
2023/07/23 05:40:58;;;;;;;4.50;3.63;;;17.80;99.90;;;;;;5072981;28;20204;-71
2023/07/23 05:43:25;;;;;;;5.53;3.75;;;17.90;99.90;;;;;;5073116;28;20266;-71
2023/07/23 05:45:52;;;;;;;4.88;4.00;;;17.90;99.90;;;;;;5072666;28;20719;-71
2023/07/23 05:48:18;;;;;;;5.03;4.13;;;18.00;99.90;;;;;;5072830;28;20304;-71
2023/07/23 05:50:45;;;;;;;4.63;3.90;;;18.10;99.90;;;;;;5072797;28;20259;-71
2023/07/23 05:53:12;;;;;;;7.75;4.65;;;18.10;99.90;;;;;;5072503;28;20684;-71
2023/07/23 05:55:38;;;;;;;4.38;3.47;;;18.20;99.90;;;;;;5072692;28;20197;-70
2023/07/23 05:58:07;;;;;;;6.03;3.65;;;18.30;99.90;;;;;;5072729;28;20254;-71
2023/07/23 06:00:34;;;;;;;3.65;3.22;;;18.40;99.90;;;;;;5072757;28;20197;-72
2023/07/23 06:03:00;;;;;;;4.10;3.70;;;18.70;99.90;;;;;;5072593;28;20197;-72
2023/07/23 06:05:27;;;;;;;4.55;3.30;;;18.70;99.90;;;;;;5072498;28;20599;-72
2023/07/23 06:07:53;;;;;;;5.50;3.50;;;18.90;99.90;;;;;;5075845;28;20266;-72
2023/07/23 06:10:20;;;;;;;6.13;3.67;;;18.90;99.90;;;;;;5076684;28;20595;-71
2023/07/23 06:12:47;;;;;;;4.00;3.60;;;19.10;99.90;;;;;;5076370;28;20688;-72
2023/07/23 06:15:15;;;;;;;3.88;3.47;;;19.20;99.90;;;;;;5076417;28;20649;-72
2023/07/23 06:17:42;;;;;;;4.13;3.47;;;19.30;99.90;;;;;;5076605;28;20223;-71
2023/07/23 06:20:09;;;;;;;3.40;3.10;;;19.30;99.90;;;;;;5076473;28;20246;-71
2023/07/23 06:22:36;;;;;;;4.28;3.45;;;19.40;99.90;;;;;;5076358;28;20201;-71
2023/07/23 06:25:03;;;;;;;3.70;3.40;;;19.60;99.90;;;;;;5076259;28;20192;-71
2023/07/23 06:27:29;;;;;;;3.63;3.22;;;19.70;99.90;;;;;;5076502;28;20262;-71
2023/07/23 06:29:56;;;;;;;5.43;3.25;;;19.80;99.90;;;;;;5076364;28;20197;-71
2023/07/23 06:32:24;;;;;;;3.67;3.38;;;19.90;99.90;;;;;;5076133;28;20262;-72
2023/07/23 06:34:50;;;;;;;3.58;3.17;;;20.00;99.90;;;;;;5076120;28;20246;-72
2023/07/23 06:37:17;;;;;;;4.15;3.75;;;20.10;99.90;;;;;;5075911;28;20222;-72
2023/07/23 06:39:44;;;;;;;5.07;3.38;;;20.20;99.90;;;;;;5076294;28;20205;-72
2023/07/23 06:42:10;;;;;;;3.53;3.20;;;20.30;99.90;;;;;;5076048;28;20615;-72
2023/07/23 06:44:39;;;;;;;3.88;3.47;;;20.50;99.90;;;;;;5076086;28;20247;-72
2023/07/23 06:47:05;;;;;;;4.15;3.00;;;20.60;99.90;;;;;;5075893;28;20247;-71
2023/07/23 06:49:33;;;;;;;4.60;3.08;;;20.70;99.90;;;;;;5075963;28;20201;-72
2023/07/23 06:52:00;;;;;;;3.58;3.20;;;20.80;99.90;;;;;;5075732;28;20193;-71
2023/07/23 06:54:27;;;;;;;3.65;3.35;;;21.00;99.90;;;;;;5075945;28;20197;-71
2023/07/23 06:56:54;;;;;;;3.42;3.13;;;21.10;99.90;;;;;;5075874;28;20229;-72
2023/07/23 06:59:21;;;;;;;5.53;3.03;;;21.20;99.90;;;;;;5075720;28;20201;-72
2023/07/23 07:01:48;;;;;;;4.57;3.38;;;21.40;99.90;;;;;;5075638;28;20258;-71
2023/07/23 07:04:14;;;;;;;7.38;3.20;;;21.60;99.90;;;;;;5075648;28;20201;-72
2023/07/23 07:06:43;;;;;;;4.38;2.83;;;21.80;99.90;;;;;;5075418;28;20611;-72
2023/07/23 07:09:09;;;;;;;4.07;2.67;;;22.00;99.90;;;;;;5075719;28;20201;-72
2023/07/23 07:11:36;;;;;;;3.33;3.03;;;22.20;99.90;;;;;;5075348;28;20603;-71
2023/07/23 07:14:03;;;;;;;3.67;3.03;;;22.30;99.90;;;;;;5075434;28;20224;-71
2023/07/23 07:16:29;;;;;;;3.47;3.05;;;22.30;99.90;;;;;;5075395;28;20565;-72
2023/07/23 07:18:56;;;;;;;4.68;3.20;;;22.30;99.90;;;;;;5074838;28;20193;-72
2023/07/23 07:21:22;;;;;;;3.58;2.88;;;22.30;99.60;;;;;;5075444;28;20248;-72
2023/07/23 07:23:50;;;;;;;3.30;3.00;;;22.40;99.50;;;;;;5075186;28;20200;-72
2023/07/23 07:26:17;;;;;;;4.95;2.88;;;22.40;98.60;;;;;;5075320;28;20254;-72
2023/07/23 07:28:44;;;;;;;3.92;2.92;;;22.40;97.90;;;;;;5075458;28;20258;-72
2023/07/23 07:31:12;;;;;;;5.10;3.28;;;22.30;97.50;;;;;;5075086;28;20645;-72
2023/07/23 07:33:39;;;;;;;3.40;3.08;;;22.30;96.90;;;;;;5074893;28;20264;-72
2023/07/23 07:36:05;;;;;;;3.60;3.10;;;22.30;96.30;;;;;;5075127;28;20205;-73
2023/07/23 07:38:32;;;;;;;6.10;3.70;;;22.40;96.00;;;;;;5075060;28;20197;-72
2023/07/23 07:41:01;;;;;;;4.93;3.40;;;22.60;95.10;;;;;;5075290;28;20197;-73
2023/07/23 07:43:28;;;;;;;3.35;3.05;;;22.80;94.70;;;;;;5074920;28;20205;-72
2023/07/23 07:45:59;;;;;;;4.18;3.22;;;23.00;94.10;;;;;;5074767;28;20239;-71
2023/07/23 07:48:26;;;;;;;3.60;3.30;;;23.10;92.60;;;;;;5074913;28;20701;-72
2023/07/23 07:50:58;;;;;;;3.75;3.08;;;23.10;91.90;;;;;;5074948;28;20254;-72
2023/07/23 07:53:25;;;;;;;4.53;3.10;;;23.10;91.30;;;;;;5074635;28;20316;-72
2023/07/23 07:55:51;;;;;;;3.58;3.28;;;23.40;90.00;;;;;;5074544;28;20561;-73
2023/07/23 07:58:24;;;;;;;4.00;3.20;;;23.40;89.20;;;;;;5074718;28;20279;-73
2023/07/23 08:00:52;;;;;;;3.28;2.97;;;23.50;88.50;;;;;;5074751;28;20228;-72
2023/07/23 08:03:19;;;;;;;3.95;3.33;;;23.40;86.70;;;;;;5074498;28;20197;-72
2023/07/23 08:05:46;;;;;;;3.78;3.20;;;23.40;86.80;;;;;;5074498;28;20197;-71
2023/07/23 08:08:15;;;;;;;3.50;3.20;;;23.80;86.20;;;;;;5074316;28;20247;-72
2023/07/23 08:10:43;;;;;;;4.43;3.20;;;23.70;85.20;;;;;;5074325;28;20197;-72
2023/07/23 08:13:11;;;;;;;7.28;3.28;;;23.70;84.60;;;;;;5074153;28;20250;-71
2023/07/23 08:15:39;;;;;;;3.90;3.03;;;23.80;84.40;;;;;;5085254;28;20200;-72
2023/07/23 08:18:06;;;;;;;3.05;2.70;;;24.10;83.40;;;;;;5094256;28;20656;-72
2023/07/23 08:20:35;;;;;;;3.28;2.78;;;24.20;82.80;;;;;;5094349;28;20200;-72
2023/07/23 08:23:02;;;;;;;3.50;3.20;;;23.80;84.30;;;;;;5094257;28;20196;-72
2023/07/23 08:25:30;;;;;;;2.58;2.38;;;23.70;83.50;;;;;;5094109;28;20200;-71
2023/07/23 08:28:00;;;;;;;4.10;3.00;;;23.50;84.40;;;;;;5094119;28;20204;-72
2023/07/23 08:30:27;;;;;;;3.88;3.30;;;23.50;83.80;;;;;;5093530;28;20192;-72
2023/07/23 08:32:56;;;;;;;4.32;3.45;;;23.60;83.80;;;;;;5094086;28;20363;-71
2023/07/23 08:35:24;;;;;;;3.65;3.30;;;24.00;84.60;;;;;;5093981;28;20652;-71
2023/07/23 08:37:51;;;;;;;6.00;3.55;;;24.10;82.50;;;;;;5094005;28;20200;-72
2023/07/23 08:40:19;;;;;;;5.43;3.10;;;24.10;82.80;;;;;;5093869;28;20277;-72
2023/07/23 08:43:09;;;;;;;3.10;2.85;;;23.90;82.60;;;;;;5093869;28;20541;-72
2023/07/23 08:46:02;;;;;;;3.33;2.92;;;23.80;83.80;;;;;;5094027;28;20246;-71
2023/07/23 08:48:45;;;;;;;4.65;3.10;;;24.10;84.00;;;;;;5093819;28;20265;-72
2023/07/23 08:51:13;;;;;;;5.53;3.03;;;24.10;83.40;;;;;;5093918;28;20196;-72
2023/07/23 08:53:39;;;;;;;3.30;3.00;;;23.90;83.20;;;;;;5093781;28;20228;-71
2023/07/23 08:56:06;;;;;;;3.05;2.75;;;24.30;83.40;;;;;;5093557;28;20200;-71
2023/07/23 08:58:33;;;;;;;3.00;2.80;;;24.20;82.20;;;;;;5093744;28;20238;-71
2023/07/23 09:01:00;;;;;;;3.17;2.85;;;24.20;81.90;;;;;;5093598;28;20200;-73
2023/07/23 09:03:28;;;;;;;4.10;2.95;;;24.50;82.40;;;;;;5093662;28;20234;-73
2023/07/23 09:05:56;;;;;;;4.25;3.10;;;24.50;81.00;;;;;;5093657;28;20249;-71
2023/07/23 09:08:23;;;;;;;2.97;2.67;;;24.60;81.30;;;;;;5093532;28;20220;-71
2023/07/23 09:10:49;;;;;;;3.30;3.00;;;24.50;80.80;;;;;;5093461;28;20196;-73
2023/07/23 09:13:16;;;;;;;5.35;3.30;;;24.30;81.90;;;;;;5093314;28;20289;-72
2023/07/23 09:15:52;;;;;;;4.10;2.80;;;24.20;81.40;;;;;;5093287;28;20206;-72
2023/07/23 09:18:20;;;;;;;5.30;3.28;;;24.20;81.90;;;;;;5093463;28;20204;-71
2023/07/23 09:20:48;;;;;;;3.25;2.80;;;24.30;81.60;;;;;;5093360;28;20200;-72
2023/07/23 09:23:17;;;;;;;4.18;3.22;;;24.50;81.50;;;;;;5093154;28;20204;-71
2023/07/23 09:25:44;;;;;;;4.88;2.88;;;24.90;80.70;;;;;;5093026;28;20249;-72
2023/07/23 09:28:20;;;;;;;4.45;2.75;;;24.90;79.80;;;;;;5092871;28;20196;-72
2023/07/23 09:30:47;;;;;;;4.90;3.03;;;25.40;79.60;;;;;;5093338;28;20200;-73
2023/07/23 09:33:13;;;;;;;3.35;3.05;;;25.00;79.20;;;;;;5093144;28;20220;-72
2023/07/23 09:35:41;;;;;;;5.07;3.17;;;25.10;78.70;;;;;;5093208;28;20196;-72
2023/07/23 09:38:12;;;;;;;4.30;2.88;;;25.80;78.60;;;;;;5093087;28;20361;-72
2023/07/23 09:40:42;;;;;;;3.47;2.78;;;25.60;76.90;;;;;;5093161;28;20245;-73
2023/07/23 09:43:09;;;;;;;5.70;3.88;;;26.10;76.40;;;;;;5093131;28;20222;-72
2023/07/23 09:45:38;;;;;;;2.80;2.50;;;26.40;75.50;;;;;;5093158;28;20249;-73
2023/07/23 09:48:05;;;;;;;3.83;3.00;;;26.20;74.60;;;;;;5092953;28;20199;-73
2023/07/23 09:50:31;;;;;;;4.65;3.15;;;26.80;74.30;;;;;;5092873;28;20647;-73
2023/07/23 09:52:58;;;;;;;3.22;3.00;;;26.40;73.00;;;;;;5092798;28;20269;-72
2023/07/23 09:55:25;;;;;;;3.83;3.08;;;26.40;73.70;;;;;;5092765;28;20200;-73
2023/07/23 09:57:54;;;;;;;3.45;3.00;;;26.10;72.30;;;;;;5092790;28;20224;-73
2023/07/23 10:00:21;;;;;;;3.47;3.17;;;25.80;72.60;;;;;;5093007;28;20200;-73
2023/07/23 10:02:50;;;;;;;5.53;2.97;;;25.80;73.10;;;;;;5092806;28;20709;-72
2023/07/23 10:05:19;;;;;;;3.80;2.75;;;25.90;72.50;;;;;;5092769;28;20196;-72
2023/07/23 10:07:47;;;;;;;4.03;2.95;;;26.80;71.90;;;;;;5092671;28;20200;-72
2023/07/23 10:10:14;;;;;;;4.65;2.85;;;26.80;70.90;;;;;;5092918;28;20249;-72
2023/07/23 10:12:41;;;;;;;4.82;3.30;;;26.10;70.90;;;;;;5093064;28;20321;-73
2023/07/23 10:15:10;;;;;;;4.05;2.85;;;26.50;71.30;;;;;;5092770;28;20228;-73
2023/07/23 10:17:40;;;;;;;3.03;2.72;;;26.50;70.00;;;;;;5092646;28;20675;-72
2023/07/23 10:20:09;;;;;;;4.47;2.70;;;26.80;69.80;;;;;;5092746;28;20203;-72
2023/07/23 10:22:37;;;;;;;5.63;3.22;;;27.10;68.00;;;;;;5093021;28;20223;-72
2023/07/23 10:25:23;;;;;;;5.55;3.10;;;27.30;67.90;;;;;;5093208;28;20204;-72
2023/07/23 10:27:56;;;;;;;3.30;3.00;;;27.20;67.60;;;;;;5092942;28;20270;-73
2023/07/23 10:30:25;;;;;;;4.13;3.00;;;27.70;66.80;;;;;;5092687;28;20257;-73
2023/07/23 10:33:25;;;;;;;4.93;2.95;;;27.10;66.80;;;;;;5092934;28;20757;-73
2023/07/23 10:36:03;;;;;;;4.95;3.25;;;26.70;68.10;;;;;;5092868;28;20204;-74
2023/07/23 10:38:32;;;;;;;4.07;3.20;;;27.50;66.00;;;;;;5092749;28;20196;-73
2023/07/23 10:40:59;;;;;;;3.40;3.10;;;28.00;63.30;;;;;;5092582;28;20242;-73
2023/07/23 10:43:44;;;;;;;4.22;3.28;;;27.30;63.80;;;;;;5092420;28;20200;-72
2023/07/23 10:46:13;;;;;;;6.28;3.13;;;26.80;64.10;;;;;;5092603;28;20201;-71
2023/07/23 10:48:42;;;;;;;6.50;3.15;;;26.50;65.80;;;;;;5092646;28;20598;-74
2023/07/23 10:51:10;;;;;;;5.93;3.03;;;26.50;66.10;;;;;;5092149;28;20743;-73
2023/07/23 10:53:53;;;;;;;4.30;3.10;;;27.30;65.30;;;;;;5094440;28;20273;-72
2023/07/23 10:56:26;;;;;;;3.42;2.97;;;27.20;64.00;;;;;;5095754;28;20239;-73
2023/07/23 10:58:56;;;;;;;3.90;3.42;;;27.80;63.40;;;;;;5095924;28;20200;-72
2023/07/23 11:01:26;;;;;;;4.15;3.05;;;27.10;62.90;;;;;;5095843;28;20200;-72
2023/07/23 11:03:58;;;;;;;2.97;2.78;;;26.60;62.80;;;;;;5095817;28;20200;-72
2023/07/23 11:06:32;;;;;;;5.45;3.50;;;26.40;63.60;;;;;;5095668;28;20196;-72
2023/07/23 11:09:03;;;;;;;5.07;3.10;;;26.50;64.80;;;;;;5095835;28;20249;-72
2023/07/23 11:11:35;;;;;;;5.28;3.20;;;26.40;62.80;;;;;;5095516;28;20659;-72
2023/07/23 11:14:03;;;;;;;4.05;3.00;;;26.40;63.60;;;;;;5095719;28;20220;-72
2023/07/23 11:16:34;;;;;;;5.30;3.03;;;27.00;63.40;;;;;;5095535;28;20208;-72
2023/07/23 11:19:04;;;;;;;3.28;2.97;;;27.10;62.10;;;;;;5095643;28;20197;-72
2023/07/23 11:21:30;;;;;;;3.53;2.83;;;27.00;62.40;;;;;;5095575;28;20241;-72
2023/07/23 11:23:59;;;;;;;3.97;2.70;;;27.00;62.10;;;;;;5095250;28;20675;-72
2023/07/23 11:26:25;;;;;;;3.20;2.90;;;27.60;61.40;;;;;;5095494;28;20200;-72
2023/07/23 11:28:52;;;;;;;6.82;3.70;;;28.30;60.80;;;;;;5095278;28;20246;-72
2023/07/23 11:31:19;;;;;;;3.67;3.13;;;28.10;59.80;;;;;;5095449;28;20253;-73
2023/07/23 11:33:47;;;;;;;5.72;2.78;;;28.60;59.40;;;;;;5095170;28;20220;-72
2023/07/23 11:36:14;;;;;;;3.05;2.75;;;28.00;58.90;;;;;;5095257;28;20196;-72
2023/07/23 11:38:41;;;;;;;3.97;2.83;;;27.70;59.70;;;;;;5095265;28;20669;-72
2023/07/23 11:41:07;;;;;;;3.75;3.45;;;28.10;59.50;;;;;;5095083;28;20253;-72
2023/07/23 11:43:35;;;;;;;5.80;3.20;;;28.50;57.90;;;;;;5094884;28;20212;-71
2023/07/23 11:46:01;;;;;;;3.75;3.20;;;28.30;57.80;;;;;;5095072;28;20196;-72
2023/07/23 11:48:28;;;;;;;4.97;3.17;;;30.10;56.30;;;;;;5094787;28;20598;-72
2023/07/23 11:50:56;;;;;;;5.47;3.00;;;29.60;55.10;;;;;;5094936;28;20234;-72
2023/07/23 11:53:36;;;;;;;3.72;3.00;;;29.40;53.70;;;;;;5094770;28;20314;-71
2023/07/23 11:56:08;;;;;;;3.97;3.05;;;28.50;54.10;;;;;;5094365;28;20655;-71
2023/07/23 11:58:35;;;;;;;4.35;3.42;;;27.60;56.00;;;;;;5094934;28;20590;-73
2023/07/23 12:01:02;;;;;;;5.18;3.15;;;27.10;56.70;;;;;;5094876;28;20192;-72
2023/07/23 12:03:29;;;;;;;3.35;3.05;;;27.20;57.20;;;;;;5094118;28;20245;-73
2023/07/23 12:05:57;;;;;;;3.60;2.88;;;27.30;56.30;;;;;;5093979;28;20342;-72
2023/07/23 12:08:24;;;;;;;3.60;3.15;;;27.20;56.40;;;;;;5094578;28;20208;-72
2023/07/23 12:10:51;;;;;;;3.42;3.13;;;27.60;56.40;;;;;;5094738;28;20212;-73
2023/07/23 12:13:17;;;;;;;3.47;3.15;;;29.00;53.40;;;;;;5094395;28;20651;-73
2023/07/23 12:15:54;;;;;;;3.03;2.72;;;28.70;52.40;;;;;;5094489;28;20228;-73
2023/07/23 12:18:22;;;;;;;3.72;2.95;;;29.50;50.40;;;;;;5094399;28;20209;-73
2023/07/23 12:20:48;;;;;;;4.97;3.10;;;29.00;50.80;;;;;;5094333;28;20197;-73
2023/07/23 12:23:16;;;;;;;5.32;2.80;;;28.40;52.20;;;;;;5094166;28;20541;-72
2023/07/23 12:25:43;;;;;;;3.70;2.70;;;28.20;52.60;;;;;;5094348;28;20196;-72
2023/07/23 12:28:09;;;;;;;3.40;3.08;;;29.20;51.30;;;;;;5094245;28;20200;-71
2023/07/23 12:30:36;;;;;;;3.08;2.80;;;29.10;50.80;;;;;;5094123;28;20249;-73
2023/07/23 12:33:03;;;;;;;5.90;2.78;;;29.30;50.80;;;;;;5094149;28;20192;-73
2023/07/23 12:35:30;;;;;;;3.13;2.80;;;30.10;49.70;;;;;;5093866;28;20607;-73
2023/07/23 12:37:56;;;;;;;3.58;2.97;;;32.20;47.80;;;;;;5094250;28;20199;-73
2023/07/23 12:40:24;;;;;;;2.85;2.65;;;32.50;45.40;;;;;;5094098;28;20246;-73
2023/07/23 12:42:51;;;;;;;4.70;2.72;;;32.00;43.70;;;;;;5093935;28;20196;-73
2023/07/23 12:45:18;;;;;;;5.20;2.75;;;30.80;43.20;;;;;;5094773;28;20208;-72
2023/07/23 12:47:44;;;;;;;3.30;3.00;;;30.10;43.70;;;;;;5095622;28;20200;-73